sensor_id;sensor_type;location;lat;lon;timestamp;P1;durP1;ratioP1;P2;durP2;ratioP2
74656;SDS011;63185;45.642;13.764;2023-05-07T00:00:08;8.77;;;6.60;;
74656;SDS011;63185;45.642;13.764;2023-05-07T00:02:34;11.80;;;6.88;;
74656;SDS011;63185;45.642;13.764;2023-05-07T00:05:01;8.80;;;6.70;;
74656;SDS011;63185;45.642;13.764;2023-05-07T00:07:27;13.50;;;8.32;;
74656;SDS011;63185;45.642;13.764;2023-05-07T00:09:53;12.25;;;7.13;;
74656;SDS011;63185;45.642;13.764;2023-05-07T00:12:19;11.52;;;6.80;;
74656;SDS011;63185;45.642;13.764;2023-05-07T00:14:45;13.15;;;7.75;;
74656;SDS011;63185;45.642;13.764;2023-05-07T00:17:10;11.98;;;7.80;;
74656;SDS011;63185;45.642;13.764;2023-05-07T00:19:36;8.43;;;6.63;;
74656;SDS011;63185;45.642;13.764;2023-05-07T00:22:02;9.82;;;6.65;;
74656;SDS011;63185;45.642;13.764;2023-05-07T00:24:28;9.02;;;5.75;;
74656;SDS011;63185;45.642;13.764;2023-05-07T00:26:53;13.13;;;6.70;;
74656;SDS011;63185;45.642;13.764;2023-05-07T00:29:19;10.10;;;6.30;;
74656;SDS011;63185;45.642;13.764;2023-05-07T00:31:45;11.55;;;6.55;;
74656;SDS011;63185;45.642;13.764;2023-05-07T00:34:10;9.63;;;6.20;;
74656;SDS011;63185;45.642;13.764;2023-05-07T00:36:36;10.88;;;6.40;;
74656;SDS011;63185;45.642;13.764;2023-05-07T00:39:02;9.57;;;6.90;;
74656;SDS011;63185;45.642;13.764;2023-05-07T00:41:28;10.82;;;6.35;;
74656;SDS011;63185;45.642;13.764;2023-05-07T00:43:55;9.05;;;5.95;;
74656;SDS011;63185;45.642;13.764;2023-05-07T00:46:21;9.10;;;6.32;;
74656;SDS011;63185;45.642;13.764;2023-05-07T00:48:49;8.88;;;6.47;;
74656;SDS011;63185;45.642;13.764;2023-05-07T00:51:16;10.35;;;6.47;;
74656;SDS011;63185;45.642;13.764;2023-05-07T00:53:42;9.48;;;6.47;;
74656;SDS011;63185;45.642;13.764;2023-05-07T00:56:08;8.98;;;6.50;;
74656;SDS011;63185;45.642;13.764;2023-05-07T00:58:34;9.85;;;6.32;;
74656;SDS011;63185;45.642;13.764;2023-05-07T01:01:01;14.68;;;7.00;;
74656;SDS011;63185;45.642;13.764;2023-05-07T01:03:27;10.57;;;6.13;;
74656;SDS011;63185;45.642;13.764;2023-05-07T01:05:53;12.13;;;6.80;;
74656;SDS011;63185;45.642;13.764;2023-05-07T01:08:22;10.73;;;6.65;;
74656;SDS011;63185;45.642;13.764;2023-05-07T01:10:50;9.70;;;6.40;;
74656;SDS011;63185;45.642;13.764;2023-05-07T01:13:16;9.05;;;6.28;;
74656;SDS011;63185;45.642;13.764;2023-05-07T01:15:43;10.10;;;6.05;;
74656;SDS011;63185;45.642;13.764;2023-05-07T01:18:09;10.73;;;5.57;;
74656;SDS011;63185;45.642;13.764;2023-05-07T01:20:35;8.35;;;5.40;;
74656;SDS011;63185;45.642;13.764;2023-05-07T01:23:00;8.82;;;5.53;;
74656;SDS011;63185;45.642;13.764;2023-05-07T01:25:27;9.68;;;4.93;;
74656;SDS011;63185;45.642;13.764;2023-05-07T01:27:53;10.15;;;5.65;;
74656;SDS011;63185;45.642;13.764;2023-05-07T01:30:20;9.32;;;5.80;;
74656;SDS011;63185;45.642;13.764;2023-05-07T01:35:30;8.18;;;5.72;;
74656;SDS011;63185;45.642;13.764;2023-05-07T01:38:01;7.90;;;5.80;;
74656;SDS011;63185;45.642;13.764;2023-05-07T01:40:29;7.50;;;4.90;;
74656;SDS011;63185;45.642;13.764;2023-05-07T01:42:55;8.90;;;5.35;;
74656;SDS011;63185;45.642;13.764;2023-05-07T01:45:21;12.10;;;5.43;;
74656;SDS011;63185;45.642;13.764;2023-05-07T01:47:47;8.57;;;5.22;;
74656;SDS011;63185;45.642;13.764;2023-05-07T01:50:15;6.03;;;4.70;;
74656;SDS011;63185;45.642;13.764;2023-05-07T01:52:43;6.63;;;4.65;;
74656;SDS011;63185;45.642;13.764;2023-05-07T01:55:09;13.10;;;5.32;;
74656;SDS011;63185;45.642;13.764;2023-05-07T01:57:35;6.43;;;4.95;;
74656;SDS011;63185;45.642;13.764;2023-05-07T02:00:00;7.47;;;5.05;;
74656;SDS011;63185;45.642;13.764;2023-05-07T02:02:27;7.97;;;5.00;;
74656;SDS011;63185;45.642;13.764;2023-05-07T02:04:53;8.50;;;5.10;;
74656;SDS011;63185;45.642;13.764;2023-05-07T02:07:19;7.30;;;4.80;;
74656;SDS011;63185;45.642;13.764;2023-05-07T02:09:44;6.95;;;4.70;;
74656;SDS011;63185;45.642;13.764;2023-05-07T02:12:10;11.52;;;4.60;;
74656;SDS011;63185;45.642;13.764;2023-05-07T02:14:36;7.18;;;4.82;;
74656;SDS011;63185;45.642;13.764;2023-05-07T02:17:02;9.25;;;4.75;;
74656;SDS011;63185;45.642;13.764;2023-05-07T02:19:27;6.97;;;4.32;;
74656;SDS011;63185;45.642;13.764;2023-05-07T02:21:53;9.32;;;4.80;;
74656;SDS011;63185;45.642;13.764;2023-05-07T02:24:19;6.65;;;4.43;;
74656;SDS011;63185;45.642;13.764;2023-05-07T02:26:45;8.57;;;4.28;;
74656;SDS011;63185;45.642;13.764;2023-05-07T02:29:10;7.68;;;4.40;;
74656;SDS011;63185;45.642;13.764;2023-05-07T02:31:36;6.63;;;4.43;;
74656;SDS011;63185;45.642;13.764;2023-05-07T02:34:02;6.97;;;4.60;;
74656;SDS011;63185;45.642;13.764;2023-05-07T02:36:28;8.02;;;4.60;;
74656;SDS011;63185;45.642;13.764;2023-05-07T02:38:54;7.38;;;4.95;;
74656;SDS011;63185;45.642;13.764;2023-05-07T02:41:20;7.13;;;4.68;;
74656;SDS011;63185;45.642;13.764;2023-05-07T02:43:46;6.38;;;4.72;;
74656;SDS011;63185;45.642;13.764;2023-05-07T02:46:11;6.68;;;4.43;;
74656;SDS011;63185;45.642;13.764;2023-05-07T02:48:37;7.20;;;5.18;;
74656;SDS011;63185;45.642;13.764;2023-05-07T02:51:03;8.20;;;4.63;;
74656;SDS011;63185;45.642;13.764;2023-05-07T02:53:30;9.60;;;5.10;;
74656;SDS011;63185;45.642;13.764;2023-05-07T02:55:56;6.88;;;4.90;;
74656;SDS011;63185;45.642;13.764;2023-05-07T02:58:23;9.25;;;5.30;;
74656;SDS011;63185;45.642;13.764;2023-05-07T03:00:49;8.30;;;4.95;;
74656;SDS011;63185;45.642;13.764;2023-05-07T03:03:15;7.55;;;4.90;;
74656;SDS011;63185;45.642;13.764;2023-05-07T03:05:41;9.55;;;4.90;;
74656;SDS011;63185;45.642;13.764;2023-05-07T03:08:08;8.13;;;5.25;;
74656;SDS011;63185;45.642;13.764;2023-05-07T03:10:34;7.75;;;5.07;;
74656;SDS011;63185;45.642;13.764;2023-05-07T03:13:01;7.43;;;5.05;;
74656;SDS011;63185;45.642;13.764;2023-05-07T03:15:26;9.13;;;4.85;;
74656;SDS011;63185;45.642;13.764;2023-05-07T03:17:52;8.93;;;5.32;;
74656;SDS011;63185;45.642;13.764;2023-05-07T03:20:18;7.80;;;5.40;;
74656;SDS011;63185;45.642;13.764;2023-05-07T03:22:43;8.20;;;4.85;;
74656;SDS011;63185;45.642;13.764;2023-05-07T03:25:09;9.02;;;4.93;;
74656;SDS011;63185;45.642;13.764;2023-05-07T03:27:35;8.23;;;5.07;;
74656;SDS011;63185;45.642;13.764;2023-05-07T03:30:01;7.03;;;4.40;;
74656;SDS011;63185;45.642;13.764;2023-05-07T03:32:27;12.10;;;5.20;;
74656;SDS011;63185;45.642;13.764;2023-05-07T03:34:53;8.23;;;5.35;;
74656;SDS011;63185;45.642;13.764;2023-05-07T03:37:20;6.00;;;5.07;;
74656;SDS011;63185;45.642;13.764;2023-05-07T03:39:46;7.82;;;5.22;;
74656;SDS011;63185;45.642;13.764;2023-05-07T03:42:13;8.50;;;4.75;;
74656;SDS011;63185;45.642;13.764;2023-05-07T03:44:40;6.97;;;5.35;;
74656;SDS011;63185;45.642;13.764;2023-05-07T03:47:05;9.10;;;5.18;;
74656;SDS011;63185;45.642;13.764;2023-05-07T03:49:31;7.60;;;5.03;;
74656;SDS011;63185;45.642;13.764;2023-05-07T03:51:57;7.45;;;5.03;;
74656;SDS011;63185;45.642;13.764;2023-05-07T03:54:23;7.47;;;5.40;;
74656;SDS011;63185;45.642;13.764;2023-05-07T03:56:48;6.43;;;5.10;;
74656;SDS011;63185;45.642;13.764;2023-05-07T03:59:14;8.15;;;5.00;;
74656;SDS011;63185;45.642;13.764;2023-05-07T04:01:40;6.63;;;4.88;;
74656;SDS011;63185;45.642;13.764;2023-05-07T04:04:05;7.95;;;5.00;;
74656;SDS011;63185;45.642;13.764;2023-05-07T04:06:31;6.47;;;4.53;;
74656;SDS011;63185;45.642;13.764;2023-05-07T04:08:57;8.82;;;5.03;;
74656;SDS011;63185;45.642;13.764;2023-05-07T04:11:23;10.15;;;4.93;;
74656;SDS011;63185;45.642;13.764;2023-05-07T04:13:48;9.40;;;4.80;;
74656;SDS011;63185;45.642;13.764;2023-05-07T04:16:14;8.18;;;5.07;;
74656;SDS011;63185;45.642;13.764;2023-05-07T04:18:40;6.47;;;4.88;;
74656;SDS011;63185;45.642;13.764;2023-05-07T04:21:13;7.70;;;5.32;;
74656;SDS011;63185;45.642;13.764;2023-05-07T04:23:40;11.27;;;5.00;;
74656;SDS011;63185;45.642;13.764;2023-05-07T04:26:05;6.85;;;4.82;;
74656;SDS011;63185;45.642;13.764;2023-05-07T04:28:32;8.63;;;5.40;;
74656;SDS011;63185;45.642;13.764;2023-05-07T04:30:57;7.68;;;5.00;;
74656;SDS011;63185;45.642;13.764;2023-05-07T04:33:23;8.25;;;5.78;;
74656;SDS011;63185;45.642;13.764;2023-05-07T04:35:49;7.93;;;5.43;;
74656;SDS011;63185;45.642;13.764;2023-05-07T04:38:15;7.60;;;5.07;;
74656;SDS011;63185;45.642;13.764;2023-05-07T04:40:41;8.40;;;5.35;;
74656;SDS011;63185;45.642;13.764;2023-05-07T04:43:07;7.45;;;5.32;;
74656;SDS011;63185;45.642;13.764;2023-05-07T04:45:34;9.57;;;5.40;;
74656;SDS011;63185;45.642;13.764;2023-05-07T04:48:00;7.35;;;4.47;;
74656;SDS011;63185;45.642;13.764;2023-05-07T04:50:26;7.30;;;4.68;;
74656;SDS011;63185;45.642;13.764;2023-05-07T04:52:52;9.77;;;4.80;;
74656;SDS011;63185;45.642;13.764;2023-05-07T04:55:17;6.35;;;4.30;;
74656;SDS011;63185;45.642;13.764;2023-05-07T04:57:43;6.05;;;3.80;;
74656;SDS011;63185;45.642;13.764;2023-05-07T05:00:10;6.53;;;4.55;;
74656;SDS011;63185;45.642;13.764;2023-05-07T05:02:39;7.03;;;4.10;;
74656;SDS011;63185;45.642;13.764;2023-05-07T05:05:06;7.10;;;4.85;;
74656;SDS011;63185;45.642;13.764;2023-05-07T05:07:32;7.93;;;4.82;;
74656;SDS011;63185;45.642;13.764;2023-05-07T05:09:58;7.45;;;4.90;;
74656;SDS011;63185;45.642;13.764;2023-05-07T05:12:24;6.82;;;5.30;;
74656;SDS011;63185;45.642;13.764;2023-05-07T05:14:50;7.45;;;4.78;;
74656;SDS011;63185;45.642;13.764;2023-05-07T05:17:15;7.53;;;4.93;;
74656;SDS011;63185;45.642;13.764;2023-05-07T05:19:41;7.65;;;5.05;;
74656;SDS011;63185;45.642;13.764;2023-05-07T05:22:07;7.97;;;5.47;;
74656;SDS011;63185;45.642;13.764;2023-05-07T05:24:33;6.97;;;5.10;;
74656;SDS011;63185;45.642;13.764;2023-05-07T05:26:59;7.05;;;4.90;;
74656;SDS011;63185;45.642;13.764;2023-05-07T05:29:27;8.48;;;5.53;;
74656;SDS011;63185;45.642;13.764;2023-05-07T05:31:52;11.18;;;5.93;;
74656;SDS011;63185;45.642;13.764;2023-05-07T05:34:18;8.93;;;5.88;;
74656;SDS011;63185;45.642;13.764;2023-05-07T05:36:47;9.10;;;4.97;;
74656;SDS011;63185;45.642;13.764;2023-05-07T05:39:12;8.93;;;5.28;;
74656;SDS011;63185;45.642;13.764;2023-05-07T05:41:39;7.65;;;5.38;;
74656;SDS011;63185;45.642;13.764;2023-05-07T05:44:05;7.40;;;5.35;;
74656;SDS011;63185;45.642;13.764;2023-05-07T05:46:31;7.45;;;5.55;;
74656;SDS011;63185;45.642;13.764;2023-05-07T05:48:56;6.88;;;5.22;;
74656;SDS011;63185;45.642;13.764;2023-05-07T05:51:22;11.98;;;5.32;;
74656;SDS011;63185;45.642;13.764;2023-05-07T05:53:48;10.30;;;5.45;;
74656;SDS011;63185;45.642;13.764;2023-05-07T05:56:14;7.25;;;5.63;;
74656;SDS011;63185;45.642;13.764;2023-05-07T05:58:40;10.77;;;5.95;;
74656;SDS011;63185;45.642;13.764;2023-05-07T06:01:06;7.43;;;5.85;;
74656;SDS011;63185;45.642;13.764;2023-05-07T06:03:32;9.50;;;5.90;;
74656;SDS011;63185;45.642;13.764;2023-05-07T06:05:58;10.02;;;6.50;;
74656;SDS011;63185;45.642;13.764;2023-05-07T06:08:25;12.13;;;6.10;;
74656;SDS011;63185;45.642;13.764;2023-05-07T06:10:51;7.47;;;6.00;;
74656;SDS011;63185;45.642;13.764;2023-05-07T06:13:17;8.43;;;5.95;;
74656;SDS011;63185;45.642;13.764;2023-05-07T06:15:44;9.48;;;5.53;;
74656;SDS011;63185;45.642;13.764;2023-05-07T06:18:09;10.60;;;6.40;;
74656;SDS011;63185;45.642;13.764;2023-05-07T06:20:35;8.23;;;5.55;;
74656;SDS011;63185;45.642;13.764;2023-05-07T06:23:01;8.40;;;5.70;;
74656;SDS011;63185;45.642;13.764;2023-05-07T06:25:26;11.40;;;6.18;;
74656;SDS011;63185;45.642;13.764;2023-05-07T06:27:52;9.48;;;6.15;;
74656;SDS011;63185;45.642;13.764;2023-05-07T06:30:18;11.60;;;6.60;;
74656;SDS011;63185;45.642;13.764;2023-05-07T06:32:44;12.88;;;6.43;;
74656;SDS011;63185;45.642;13.764;2023-05-07T06:35:09;8.77;;;6.57;;
74656;SDS011;63185;45.642;13.764;2023-05-07T06:37:35;9.63;;;6.68;;
74656;SDS011;63185;45.642;13.764;2023-05-07T06:40:04;10.65;;;7.32;;
74656;SDS011;63185;45.642;13.764;2023-05-07T06:44:58;8.10;;;5.78;;
74656;SDS011;63185;45.642;13.764;2023-05-07T06:47:24;9.57;;;6.63;;
74656;SDS011;63185;45.642;13.764;2023-05-07T06:49:49;9.48;;;6.75;;
74656;SDS011;63185;45.642;13.764;2023-05-07T06:52:15;8.95;;;6.07;;
74656;SDS011;63185;45.642;13.764;2023-05-07T06:54:41;9.57;;;6.72;;
74656;SDS011;63185;45.642;13.764;2023-05-07T06:57:06;10.52;;;6.25;;
74656;SDS011;63185;45.642;13.764;2023-05-07T06:59:32;10.35;;;6.18;;
74656;SDS011;63185;45.642;13.764;2023-05-07T07:01:58;8.00;;;5.53;;
74656;SDS011;63185;45.642;13.764;2023-05-07T07:04:23;9.88;;;6.20;;
74656;SDS011;63185;45.642;13.764;2023-05-07T07:06:51;9.95;;;6.35;;
74656;SDS011;63185;45.642;13.764;2023-05-07T07:09:17;8.73;;;6.45;;
74656;SDS011;63185;45.642;13.764;2023-05-07T07:11:43;11.10;;;6.13;;
74656;SDS011;63185;45.642;13.764;2023-05-07T07:14:09;9.32;;;6.30;;
74656;SDS011;63185;45.642;13.764;2023-05-07T07:16:34;9.00;;;6.10;;
74656;SDS011;63185;45.642;13.764;2023-05-07T07:19:00;9.68;;;6.15;;
74656;SDS011;63185;45.642;13.764;2023-05-07T07:21:26;8.15;;;6.40;;
74656;SDS011;63185;45.642;13.764;2023-05-07T07:23:51;9.07;;;5.68;;
74656;SDS011;63185;45.642;13.764;2023-05-07T07:26:17;7.30;;;5.90;;
74656;SDS011;63185;45.642;13.764;2023-05-07T07:28:43;8.25;;;6.13;;
74656;SDS011;63185;45.642;13.764;2023-05-07T07:31:10;7.72;;;6.70;;
74656;SDS011;63185;45.642;13.764;2023-05-07T07:33:36;10.95;;;6.35;;
74656;SDS011;63185;45.642;13.764;2023-05-07T07:36:02;10.68;;;5.95;;
74656;SDS011;63185;45.642;13.764;2023-05-07T07:38:30;13.43;;;6.00;;
74656;SDS011;63185;45.642;13.764;2023-05-07T07:40:55;11.30;;;5.60;;
74656;SDS011;63185;45.642;13.764;2023-05-07T07:43:21;9.00;;;5.68;;
74656;SDS011;63185;45.642;13.764;2023-05-07T07:45:47;8.45;;;6.32;;
74656;SDS011;63185;45.642;13.764;2023-05-07T07:48:12;7.65;;;6.10;;
74656;SDS011;63185;45.642;13.764;2023-05-07T07:50:38;10.30;;;6.95;;
74656;SDS011;63185;45.642;13.764;2023-05-07T07:53:04;7.50;;;6.20;;
74656;SDS011;63185;45.642;13.764;2023-05-07T07:55:30;9.20;;;6.60;;
74656;SDS011;63185;45.642;13.764;2023-05-07T07:57:57;10.77;;;6.40;;
74656;SDS011;63185;45.642;13.764;2023-05-07T08:00:22;9.40;;;6.30;;
74656;SDS011;63185;45.642;13.764;2023-05-07T08:02:48;9.90;;;6.45;;
74656;SDS011;63185;45.642;13.764;2023-05-07T08:05:15;12.00;;;5.90;;
74656;SDS011;63185;45.642;13.764;2023-05-07T08:07:46;10.75;;;6.50;;
74656;SDS011;63185;45.642;13.764;2023-05-07T08:10:21;9.00;;;6.22;;
74656;SDS011;63185;45.642;13.764;2023-05-07T08:12:54;8.75;;;6.55;;
74656;SDS011;63185;45.642;13.764;2023-05-07T08:15:19;11.98;;;6.45;;
74656;SDS011;63185;45.642;13.764;2023-05-07T08:17:45;11.18;;;6.32;;
74656;SDS011;63185;45.642;13.764;2023-05-07T08:20:11;11.48;;;6.35;;
74656;SDS011;63185;45.642;13.764;2023-05-07T08:22:37;9.18;;;6.82;;
74656;SDS011;63185;45.642;13.764;2023-05-07T08:25:02;10.40;;;7.13;;
74656;SDS011;63185;45.642;13.764;2023-05-07T08:27:28;11.20;;;7.80;;
74656;SDS011;63185;45.642;13.764;2023-05-07T08:29:54;9.27;;;7.57;;
74656;SDS011;63185;45.642;13.764;2023-05-07T08:32:20;10.88;;;7.22;;
74656;SDS011;63185;45.642;13.764;2023-05-07T08:34:46;12.18;;;7.85;;
74656;SDS011;63185;45.642;13.764;2023-05-07T08:37:12;11.95;;;8.05;;
74656;SDS011;63185;45.642;13.764;2023-05-07T08:39:38;12.23;;;6.93;;
74656;SDS011;63185;45.642;13.764;2023-05-07T08:42:04;9.43;;;7.45;;
74656;SDS011;63185;45.642;13.764;2023-05-07T08:44:40;11.52;;;7.13;;
74656;SDS011;63185;45.642;13.764;2023-05-07T08:47:10;8.00;;;6.97;;
74656;SDS011;63185;45.642;13.764;2023-05-07T08:49:36;10.57;;;7.95;;
74656;SDS011;63185;45.642;13.764;2023-05-07T08:52:02;16.42;;;8.52;;
74656;SDS011;63185;45.642;13.764;2023-05-07T08:54:28;11.95;;;8.30;;
74656;SDS011;63185;45.642;13.764;2023-05-07T08:56:55;11.90;;;8.50;;
74656;SDS011;63185;45.642;13.764;2023-05-07T08:59:21;8.63;;;7.70;;
74656;SDS011;63185;45.642;13.764;2023-05-07T09:01:47;11.30;;;8.20;;
74656;SDS011;63185;45.642;13.764;2023-05-07T09:04:13;13.77;;;8.82;;
74656;SDS011;63185;45.642;13.764;2023-05-07T09:06:38;12.80;;;8.75;;
74656;SDS011;63185;45.642;13.764;2023-05-07T09:09:07;13.40;;;9.45;;
74656;SDS011;63185;45.642;13.764;2023-05-07T09:11:33;11.18;;;7.88;;
74656;SDS011;63185;45.642;13.764;2023-05-07T09:13:58;12.40;;;8.65;;
74656;SDS011;63185;45.642;13.764;2023-05-07T09:16:28;10.57;;;8.65;;
74656;SDS011;63185;45.642;13.764;2023-05-07T09:18:57;12.00;;;8.40;;
74656;SDS011;63185;45.642;13.764;2023-05-07T09:21:25;10.23;;;8.85;;
74656;SDS011;63185;45.642;13.764;2023-05-07T09:23:52;13.18;;;9.25;;
74656;SDS011;63185;45.642;13.764;2023-05-07T09:26:23;12.88;;;9.80;;
74656;SDS011;63185;45.642;13.764;2023-05-07T09:28:50;12.43;;;10.32;;
74656;SDS011;63185;45.642;13.764;2023-05-07T09:31:16;13.10;;;9.13;;
74656;SDS011;63185;45.642;13.764;2023-05-07T09:33:42;12.35;;;9.93;;
74656;SDS011;63185;45.642;13.764;2023-05-07T09:36:08;12.20;;;9.48;;
74656;SDS011;63185;45.642;13.764;2023-05-07T09:38:35;16.27;;;10.45;;
74656;SDS011;63185;45.642;13.764;2023-05-07T09:41:05;16.50;;;11.23;;
74656;SDS011;63185;45.642;13.764;2023-05-07T09:46:06;15.73;;;10.90;;
74656;SDS011;63185;45.642;13.764;2023-05-07T09:48:36;16.50;;;10.85;;
74656;SDS011;63185;45.642;13.764;2023-05-07T09:51:06;15.35;;;10.25;;
74656;SDS011;63185;45.642;13.764;2023-05-07T09:53:56;15.57;;;10.38;;
74656;SDS011;63185;45.642;13.764;2023-05-07T09:56:24;12.25;;;10.15;;
74656;SDS011;63185;45.642;13.764;2023-05-07T09:58:52;14.23;;;10.88;;
74656;SDS011;63185;45.642;13.764;2023-05-07T10:03:47;12.43;;;10.50;;
74656;SDS011;63185;45.642;13.764;2023-05-07T10:06:15;13.82;;;10.73;;
74656;SDS011;63185;45.642;13.764;2023-05-07T10:08:42;14.20;;;10.93;;
74656;SDS011;63185;45.642;13.764;2023-05-07T10:11:09;14.80;;;11.43;;
74656;SDS011;63185;45.642;13.764;2023-05-07T10:13:38;14.18;;;9.88;;
74656;SDS011;63185;45.642;13.764;2023-05-07T10:16:04;15.18;;;10.75;;
74656;SDS011;63185;45.642;13.764;2023-05-07T10:18:31;10.20;;;9.10;;
74656;SDS011;63185;45.642;13.764;2023-05-07T10:21:07;11.88;;;9.23;;
74656;SDS011;63185;45.642;13.764;2023-05-07T10:23:36;14.65;;;10.27;;
74656;SDS011;63185;45.642;13.764;2023-05-07T10:26:04;17.02;;;10.55;;
74656;SDS011;63185;45.642;13.764;2023-05-07T10:28:33;13.27;;;9.95;;
74656;SDS011;63185;45.642;13.764;2023-05-07T10:33:51;13.55;;;10.15;;
74656;SDS011;63185;45.642;13.764;2023-05-07T10:36:18;15.95;;;9.38;;
74656;SDS011;63185;45.642;13.764;2023-05-07T10:38:46;16.55;;;9.82;;
74656;SDS011;63185;45.642;13.764;2023-05-07T10:41:12;13.68;;;8.52;;
74656;SDS011;63185;45.642;13.764;2023-05-07T10:43:39;12.52;;;8.77;;
74656;SDS011;63185;45.642;13.764;2023-05-07T10:46:17;12.67;;;9.43;;
74656;SDS011;63185;45.642;13.764;2023-05-07T10:51:33;14.95;;;10.20;;
74656;SDS011;63185;45.642;13.764;2023-05-07T10:56:35;12.77;;;9.18;;
74656;SDS011;63185;45.642;13.764;2023-05-07T11:04:16;13.45;;;9.07;;
74656;SDS011;63185;45.642;13.764;2023-05-07T11:15:06;9.80;;;7.32;;
74656;SDS011;63185;45.642;13.764;2023-05-07T11:17:33;9.93;;;7.45;;
74656;SDS011;63185;45.642;13.764;2023-05-07T11:20:00;12.98;;;7.78;;
74656;SDS011;63185;45.642;13.764;2023-05-07T11:24:56;14.57;;;8.10;;
74656;SDS011;63185;45.642;13.764;2023-05-07T11:27:26;12.40;;;8.65;;
74656;SDS011;63185;45.642;13.764;2023-05-07T11:29:52;11.80;;;7.47;;
74656;SDS011;63185;45.642;13.764;2023-05-07T11:34:53;10.05;;;7.47;;
74656;SDS011;63185;45.642;13.764;2023-05-07T11:37:20;8.32;;;6.78;;
74656;SDS011;63185;45.642;13.764;2023-05-07T11:39:47;9.45;;;7.28;;
74656;SDS011;63185;45.642;13.764;2023-05-07T11:42:33;10.57;;;7.53;;
74656;SDS011;63185;45.642;13.764;2023-05-07T11:44:59;8.85;;;7.10;;
74656;SDS011;63185;45.642;13.764;2023-05-07T11:47:26;10.98;;;9.18;;
74656;SDS011;63185;45.642;13.764;2023-05-07T11:52:21;11.98;;;7.57;;
74656;SDS011;63185;45.642;13.764;2023-05-07T11:54:49;9.68;;;7.70;;
74656;SDS011;63185;45.642;13.764;2023-05-07T11:57:19;9.65;;;7.65;;
74656;SDS011;63185;45.642;13.764;2023-05-07T11:59:45;11.23;;;7.78;;
74656;SDS011;63185;45.642;13.764;2023-05-07T12:02:16;12.55;;;9.80;;
74656;SDS011;63185;45.642;13.764;2023-05-07T12:04:42;11.63;;;8.15;;
74656;SDS011;63185;45.642;13.764;2023-05-07T12:07:12;10.35;;;7.57;;
74656;SDS011;63185;45.642;13.764;2023-05-07T12:09:39;8.55;;;6.32;;
74656;SDS011;63185;45.642;13.764;2023-05-07T12:12:06;11.02;;;7.70;;
74656;SDS011;63185;45.642;13.764;2023-05-07T12:14:32;10.50;;;7.90;;
74656;SDS011;63185;45.642;13.764;2023-05-07T12:16:58;9.88;;;7.88;;
74656;SDS011;63185;45.642;13.764;2023-05-07T12:19:28;13.38;;;8.93;;
74656;SDS011;63185;45.642;13.764;2023-05-07T12:21:55;11.70;;;7.97;;
74656;SDS011;63185;45.642;13.764;2023-05-07T12:24:21;9.30;;;6.55;;
74656;SDS011;63185;45.642;13.764;2023-05-07T12:26:47;10.27;;;7.70;;
74656;SDS011;63185;45.642;13.764;2023-05-07T12:29:13;12.40;;;7.82;;
74656;SDS011;63185;45.642;13.764;2023-05-07T12:31:42;10.18;;;7.35;;
74656;SDS011;63185;45.642;13.764;2023-05-07T12:34:10;11.82;;;8.00;;
74656;SDS011;63185;45.642;13.764;2023-05-07T12:36:39;10.60;;;7.78;;
74656;SDS011;63185;45.642;13.764;2023-05-07T12:39:08;9.15;;;6.30;;
74656;SDS011;63185;45.642;13.764;2023-05-07T12:41:53;9.45;;;7.30;;
74656;SDS011;63185;45.642;13.764;2023-05-07T12:44:32;9.63;;;6.78;;
74656;SDS011;63185;45.642;13.764;2023-05-07T12:47:02;9.10;;;7.10;;
74656;SDS011;63185;45.642;13.764;2023-05-07T12:49:28;10.30;;;6.38;;
74656;SDS011;63185;45.642;13.764;2023-05-07T12:51:54;8.05;;;6.38;;
74656;SDS011;63185;45.642;13.764;2023-05-07T12:54:33;8.80;;;6.68;;
74656;SDS011;63185;45.642;13.764;2023-05-07T12:57:03;9.70;;;7.38;;
74656;SDS011;63185;45.642;13.764;2023-05-07T12:59:33;9.52;;;7.38;;
74656;SDS011;63185;45.642;13.764;2023-05-07T13:02:00;10.18;;;7.07;;
74656;SDS011;63185;45.642;13.764;2023-05-07T13:04:26;13.35;;;7.93;;
74656;SDS011;63185;45.642;13.764;2023-05-07T13:06:52;10.90;;;8.52;;
74656;SDS011;63185;45.642;13.764;2023-05-07T13:09:17;12.68;;;7.57;;
74656;SDS011;63185;45.642;13.764;2023-05-07T13:11:43;11.50;;;7.70;;
74656;SDS011;63185;45.642;13.764;2023-05-07T13:14:09;11.52;;;7.40;;
74656;SDS011;63185;45.642;13.764;2023-05-07T13:16:35;8.15;;;7.00;;
74656;SDS011;63185;45.642;13.764;2023-05-07T13:19:00;12.32;;;7.28;;
74656;SDS011;63185;45.642;13.764;2023-05-07T13:21:26;11.02;;;8.10;;
74656;SDS011;63185;45.642;13.764;2023-05-07T13:23:52;8.85;;;7.43;;
74656;SDS011;63185;45.642;13.764;2023-05-07T13:26:18;8.68;;;6.78;;
74656;SDS011;63185;45.642;13.764;2023-05-07T13:28:43;10.60;;;7.35;;
74656;SDS011;63185;45.642;13.764;2023-05-07T13:31:09;9.55;;;7.70;;
74656;SDS011;63185;45.642;13.764;2023-05-07T13:33:35;9.32;;;7.05;;
74656;SDS011;63185;45.642;13.764;2023-05-07T13:36:01;9.98;;;7.75;;
74656;SDS011;63185;45.642;13.764;2023-05-07T13:38:29;12.48;;;9.05;;
74656;SDS011;63185;45.642;13.764;2023-05-07T13:40:55;12.88;;;9.48;;
74656;SDS011;63185;45.642;13.764;2023-05-07T13:43:20;12.95;;;10.10;;
74656;SDS011;63185;45.642;13.764;2023-05-07T13:45:46;11.40;;;8.82;;
74656;SDS011;63185;45.642;13.764;2023-05-07T13:48:12;10.25;;;8.65;;
74656;SDS011;63185;45.642;13.764;2023-05-07T13:50:37;13.05;;;9.73;;
74656;SDS011;63185;45.642;13.764;2023-05-07T13:53:03;14.02;;;9.23;;
74656;SDS011;63185;45.642;13.764;2023-05-07T13:55:29;14.57;;;9.40;;
74656;SDS011;63185;45.642;13.764;2023-05-07T13:57:55;12.00;;;8.70;;
74656;SDS011;63185;45.642;13.764;2023-05-07T14:00:23;12.43;;;8.52;;
74656;SDS011;63185;45.642;13.764;2023-05-07T14:02:50;13.27;;;9.40;;
74656;SDS011;63185;45.642;13.764;2023-05-07T14:05:16;15.50;;;10.15;;
74656;SDS011;63185;45.642;13.764;2023-05-07T14:07:41;11.02;;;8.05;;
74656;SDS011;63185;45.642;13.764;2023-05-07T14:10:07;10.70;;;8.32;;
74656;SDS011;63185;45.642;13.764;2023-05-07T14:12:34;10.90;;;8.30;;
74656;SDS011;63185;45.642;13.764;2023-05-07T14:15:00;12.57;;;8.32;;
74656;SDS011;63185;45.642;13.764;2023-05-07T14:17:26;13.73;;;7.75;;
74656;SDS011;63185;45.642;13.764;2023-05-07T14:19:52;8.52;;;6.53;;
74656;SDS011;63185;45.642;13.764;2023-05-07T14:22:19;10.85;;;7.30;;
74656;SDS011;63185;45.642;13.764;2023-05-07T14:24:47;9.18;;;6.93;;
74656;SDS011;63185;45.642;13.764;2023-05-07T14:27:12;10.15;;;7.05;;
74656;SDS011;63185;45.642;13.764;2023-05-07T14:29:38;8.93;;;7.40;;
74656;SDS011;63185;45.642;13.764;2023-05-07T14:32:04;10.65;;;7.13;;
74656;SDS011;63185;45.642;13.764;2023-05-07T14:34:30;9.20;;;7.13;;
74656;SDS011;63185;45.642;13.764;2023-05-07T14:36:56;12.77;;;6.88;;
74656;SDS011;63185;45.642;13.764;2023-05-07T14:39:22;8.25;;;6.47;;
74656;SDS011;63185;45.642;13.764;2023-05-07T14:41:48;8.30;;;6.32;;
74656;SDS011;63185;45.642;13.764;2023-05-07T14:44:14;8.93;;;6.22;;
74656;SDS011;63185;45.642;13.764;2023-05-07T14:46:40;7.20;;;5.65;;
74656;SDS011;63185;45.642;13.764;2023-05-07T14:49:05;8.05;;;6.20;;
74656;SDS011;63185;45.642;13.764;2023-05-07T14:51:31;10.45;;;5.70;;
74656;SDS011;63185;45.642;13.764;2023-05-07T14:54:00;7.43;;;5.43;;
74656;SDS011;63185;45.642;13.764;2023-05-07T14:56:26;6.25;;;4.82;;
74656;SDS011;63185;45.642;13.764;2023-05-07T14:58:52;6.47;;;5.30;;
74656;SDS011;63185;45.642;13.764;2023-05-07T15:01:19;8.27;;;5.05;;
74656;SDS011;63185;45.642;13.764;2023-05-07T15:03:45;6.95;;;4.97;;